sensor_id;sensor_type;location;lat;lon;timestamp;P1;durP1;ratioP1;P2;durP2;ratioP2
62401;SDS011;48440;51.224;22.506;2024-01-16T00:23:30;4.95;;;1.88;;
62401;SDS011;48440;51.224;22.506;2024-01-16T00:30:12;5.03;;;2.17;;
62401;SDS011;48440;51.224;22.506;2024-01-16T00:36:22;5.68;;;2.30;;
62401;SDS011;48440;51.224;22.506;2024-01-16T00:39:46;9.70;;;2.75;;
62401;SDS011;48440;51.224;22.506;2024-01-16T00:42:17;6.18;;;2.40;;
62401;SDS011;48440;51.224;22.506;2024-01-16T00:44:43;8.55;;;2.72;;
62401;SDS011;48440;51.224;22.506;2024-01-16T00:47:08;6.47;;;2.45;;
62401;SDS011;48440;51.224;22.506;2024-01-16T00:49:35;4.80;;;2.13;;
62401;SDS011;48440;51.224;22.506;2024-01-16T00:52:00;6.18;;;2.53;;
62401;SDS011;48440;51.224;22.506;2024-01-16T00:54:26;6.47;;;2.40;;
62401;SDS011;48440;51.224;22.506;2024-01-16T00:56:51;5.15;;;2.20;;
62401;SDS011;48440;51.224;22.506;2024-01-16T00:59:20;5.70;;;2.13;;
62401;SDS011;48440;51.224;22.506;2024-01-16T01:01:46;6.90;;;2.85;;
62401;SDS011;48440;51.224;22.506;2024-01-16T01:04:12;8.70;;;2.88;;
62401;SDS011;48440;51.224;22.506;2024-01-16T01:06:43;5.93;;;2.17;;
62401;SDS011;48440;51.224;22.506;2024-01-16T01:09:08;8.18;;;3.30;;
62401;SDS011;48440;51.224;22.506;2024-01-16T01:11:36;7.93;;;2.50;;
62401;SDS011;48440;51.224;22.506;2024-01-16T01:14:05;6.18;;;2.55;;
62401;SDS011;48440;51.224;22.506;2024-01-16T01:16:31;4.53;;;2.20;;
62401;SDS011;48440;51.224;22.506;2024-01-16T01:18:56;6.05;;;2.28;;
62401;SDS011;48440;51.224;22.506;2024-01-16T01:21:22;6.60;;;2.20;;
62401;SDS011;48440;51.224;22.506;2024-01-16T01:23:47;7.72;;;2.50;;
62401;SDS011;48440;51.224;22.506;2024-01-16T01:26:13;4.40;;;1.98;;
62401;SDS011;48440;51.224;22.506;2024-01-16T01:28:39;5.57;;;2.45;;
62401;SDS011;48440;51.224;22.506;2024-01-16T01:31:05;8.85;;;2.83;;
62401;SDS011;48440;51.224;22.506;2024-01-16T01:33:33;6.80;;;2.63;;
62401;SDS011;48440;51.224;22.506;2024-01-16T01:35:59;5.10;;;2.33;;
62401;SDS011;48440;51.224;22.506;2024-01-16T01:38:24;8.35;;;2.55;;
62401;SDS011;48440;51.224;22.506;2024-01-16T01:40:50;4.70;;;2.17;;
62401;SDS011;48440;51.224;22.506;2024-01-16T01:43:22;6.82;;;2.78;;
62401;SDS011;48440;51.224;22.506;2024-01-16T01:48:45;4.65;;;2.15;;
62401;SDS011;48440;51.224;22.506;2024-01-16T01:51:13;5.15;;;2.45;;
62401;SDS011;48440;51.224;22.506;2024-01-16T01:53:41;7.68;;;2.88;;
62401;SDS011;48440;51.224;22.506;2024-01-16T01:56:10;7.32;;;2.85;;
62401;SDS011;48440;51.224;22.506;2024-01-16T01:58:49;7.07;;;2.38;;
62401;SDS011;48440;51.224;22.506;2024-01-16T02:03:46;8.25;;;2.97;;
62401;SDS011;48440;51.224;22.506;2024-01-16T02:06:12;6.68;;;2.45;;
62401;SDS011;48440;51.224;22.506;2024-01-16T02:08:41;6.05;;;2.20;;
62401;SDS011;48440;51.224;22.506;2024-01-16T02:11:07;6.90;;;2.75;;
62401;SDS011;48440;51.224;22.506;2024-01-16T02:13:33;5.72;;;2.45;;
62401;SDS011;48440;51.224;22.506;2024-01-16T02:15:58;5.70;;;2.28;;
62401;SDS011;48440;51.224;22.506;2024-01-16T02:18:24;7.22;;;3.17;;
62401;SDS011;48440;51.224;22.506;2024-01-16T02:20:50;8.32;;;3.25;;
62401;SDS011;48440;51.224;22.506;2024-01-16T02:23:21;8.65;;;2.95;;
62401;SDS011;48440;51.224;22.506;2024-01-16T02:25:53;8.48;;;3.13;;
62401;SDS011;48440;51.224;22.506;2024-01-16T02:28:19;6.20;;;2.72;;
62401;SDS011;48440;51.224;22.506;2024-01-16T02:30:45;8.63;;;2.90;;
62401;SDS011;48440;51.224;22.506;2024-01-16T02:33:11;7.50;;;3.13;;
62401;SDS011;48440;51.224;22.506;2024-01-16T02:35:37;6.68;;;2.70;;
62401;SDS011;48440;51.224;22.506;2024-01-16T02:38:02;5.43;;;2.90;;
62401;SDS011;48440;51.224;22.506;2024-01-16T02:40:28;7.90;;;2.72;;
62401;SDS011;48440;51.224;22.506;2024-01-16T02:42:54;5.53;;;2.28;;
62401;SDS011;48440;51.224;22.506;2024-01-16T02:45:20;5.38;;;2.30;;
62401;SDS011;48440;51.224;22.506;2024-01-16T02:47:46;7.05;;;3.03;;
62401;SDS011;48440;51.224;22.506;2024-01-16T02:50:11;8.10;;;2.90;;
62401;SDS011;48440;51.224;22.506;2024-01-16T02:52:37;7.15;;;3.15;;
62401;SDS011;48440;51.224;22.506;2024-01-16T02:55:02;10.48;;;3.08;;
62401;SDS011;48440;51.224;22.506;2024-01-16T02:57:29;4.15;;;2.22;;
62401;SDS011;48440;51.224;22.506;2024-01-16T02:59:55;6.65;;;2.67;;
62401;SDS011;48440;51.224;22.506;2024-01-16T03:02:21;9.52;;;2.70;;
62401;SDS011;48440;51.224;22.506;2024-01-16T03:04:48;7.57;;;2.83;;
62401;SDS011;48440;51.224;22.506;2024-01-16T03:07:14;8.05;;;3.45;;
62401;SDS011;48440;51.224;22.506;2024-01-16T03:09:39;6.68;;;2.35;;
62401;SDS011;48440;51.224;22.506;2024-01-16T03:12:05;7.38;;;2.83;;
62401;SDS011;48440;51.224;22.506;2024-01-16T03:14:31;6.28;;;2.33;;
62401;SDS011;48440;51.224;22.506;2024-01-16T03:17:03;6.30;;;2.63;;
62401;SDS011;48440;51.224;22.506;2024-01-16T03:19:29;9.45;;;3.10;;
62401;SDS011;48440;51.224;22.506;2024-01-16T03:21:54;5.05;;;2.20;;
62401;SDS011;48440;51.224;22.506;2024-01-16T03:24:20;7.38;;;2.70;;
62401;SDS011;48440;51.224;22.506;2024-01-16T03:26:46;8.60;;;2.90;;
62401;SDS011;48440;51.224;22.506;2024-01-16T03:29:11;6.00;;;2.40;;
62401;SDS011;48440;51.224;22.506;2024-01-16T03:31:37;7.63;;;2.58;;
62401;SDS011;48440;51.224;22.506;2024-01-16T03:34:03;8.88;;;3.03;;
62401;SDS011;48440;51.224;22.506;2024-01-16T03:36:29;7.57;;;2.80;;
62401;SDS011;48440;51.224;22.506;2024-01-16T03:38:54;10.23;;;3.97;;
62401;SDS011;48440;51.224;22.506;2024-01-16T03:41:20;5.88;;;2.42;;
62401;SDS011;48440;51.224;22.506;2024-01-16T03:43:45;7.75;;;3.10;;
62401;SDS011;48440;51.224;22.506;2024-01-16T03:46:11;7.57;;;2.88;;
62401;SDS011;48440;51.224;22.506;2024-01-16T03:48:45;7.55;;;3.05;;
62401;SDS011;48440;51.224;22.506;2024-01-16T03:51:13;6.63;;;2.50;;
62401;SDS011;48440;51.224;22.506;2024-01-16T03:53:44;9.02;;;3.35;;
62401;SDS011;48440;51.224;22.506;2024-01-16T03:56:10;7.15;;;3.15;;
62401;SDS011;48440;51.224;22.506;2024-01-16T03:58:35;9.07;;;2.97;;
62401;SDS011;48440;51.224;22.506;2024-01-16T04:01:01;6.40;;;2.85;;
62401;SDS011;48440;51.224;22.506;2024-01-16T04:03:27;7.53;;;2.80;;
62401;SDS011;48440;51.224;22.506;2024-01-16T04:05:52;7.93;;;2.88;;
62401;SDS011;48440;51.224;22.506;2024-01-16T04:08:17;10.48;;;3.00;;
62401;SDS011;48440;51.224;22.506;2024-01-16T04:10:43;7.57;;;2.97;;
62401;SDS011;48440;51.224;22.506;2024-01-16T04:13:08;7.15;;;3.20;;
62401;SDS011;48440;51.224;22.506;2024-01-16T04:15:37;7.03;;;2.70;;
62401;SDS011;48440;51.224;22.506;2024-01-16T04:18:03;6.22;;;2.75;;
62401;SDS011;48440;51.224;22.506;2024-01-16T04:20:28;6.60;;;2.85;;
62401;SDS011;48440;51.224;22.506;2024-01-16T04:22:54;6.55;;;2.78;;
62401;SDS011;48440;51.224;22.506;2024-01-16T04:25:22;8.00;;;2.67;;
62401;SDS011;48440;51.224;22.506;2024-01-16T04:27:48;4.90;;;2.22;;
62401;SDS011;48440;51.224;22.506;2024-01-16T04:30:14;7.25;;;2.53;;
62401;SDS011;48440;51.224;22.506;2024-01-16T04:32:39;5.05;;;2.05;;
62401;SDS011;48440;51.224;22.506;2024-01-16T04:35:05;5.75;;;2.50;;
62401;SDS011;48440;51.224;22.506;2024-01-16T04:37:30;6.93;;;2.15;;
62401;SDS011;48440;51.224;22.506;2024-01-16T04:39:56;6.22;;;2.67;;
62401;SDS011;48440;51.224;22.506;2024-01-16T04:42:23;4.95;;;2.08;;
62401;SDS011;48440;51.224;22.506;2024-01-16T04:44:48;4.30;;;1.92;;
62401;SDS011;48440;51.224;22.506;2024-01-16T04:47:14;5.72;;;2.42;;
62401;SDS011;48440;51.224;22.506;2024-01-16T04:49:42;5.93;;;2.33;;
62401;SDS011;48440;51.224;22.506;2024-01-16T04:52:08;4.30;;;1.92;;
62401;SDS011;48440;51.224;22.506;2024-01-16T04:54:33;6.93;;;2.40;;
62401;SDS011;48440;51.224;22.506;2024-01-16T04:57:02;4.57;;;2.03;;
62401;SDS011;48440;51.224;22.506;2024-01-16T04:59:28;3.58;;;1.67;;
62401;SDS011;48440;51.224;22.506;2024-01-16T05:01:55;3.47;;;1.80;;
62401;SDS011;48440;51.224;22.506;2024-01-16T05:04:26;3.65;;;1.88;;
62401;SDS011;48440;51.224;22.506;2024-01-16T05:06:55;4.32;;;2.08;;
62401;SDS011;48440;51.224;22.506;2024-01-16T05:09:20;4.30;;;2.17;;
62401;SDS011;48440;51.224;22.506;2024-01-16T05:12:15;3.90;;;1.73;;
62401;SDS011;48440;51.224;22.506;2024-01-16T05:14:40;3.05;;;1.75;;
62401;SDS011;48440;51.224;22.506;2024-01-16T05:17:08;4.60;;;2.03;;
62401;SDS011;48440;51.224;22.506;2024-01-16T05:19:34;4.32;;;1.70;;
62401;SDS011;48440;51.224;22.506;2024-01-16T05:22:02;4.97;;;2.10;;
62401;SDS011;48440;51.224;22.506;2024-01-16T05:24:28;5.68;;;2.72;;
62401;SDS011;48440;51.224;22.506;2024-01-16T05:26:54;6.15;;;2.30;;
62401;SDS011;48440;51.224;22.506;2024-01-16T05:29:20;4.40;;;1.95;;
62401;SDS011;48440;51.224;22.506;2024-01-16T05:31:45;4.55;;;2.20;;
62401;SDS011;48440;51.224;22.506;2024-01-16T05:34:11;7.40;;;2.53;;
62401;SDS011;48440;51.224;22.506;2024-01-16T05:36:37;6.05;;;2.80;;
62401;SDS011;48440;51.224;22.506;2024-01-16T05:39:02;6.43;;;2.38;;
62401;SDS011;48440;51.224;22.506;2024-01-16T05:41:34;5.32;;;1.88;;
62401;SDS011;48440;51.224;22.506;2024-01-16T05:44:00;5.60;;;2.13;;
62401;SDS011;48440;51.224;22.506;2024-01-16T05:46:31;4.82;;;2.22;;
62401;SDS011;48440;51.224;22.506;2024-01-16T05:48:56;4.47;;;2.15;;
62401;SDS011;48440;51.224;22.506;2024-01-16T05:51:23;5.93;;;2.30;;
62401;SDS011;48440;51.224;22.506;2024-01-16T05:53:48;4.78;;;2.28;;
62401;SDS011;48440;51.224;22.506;2024-01-16T05:56:16;4.93;;;2.30;;
62401;SDS011;48440;51.224;22.506;2024-01-16T05:59:07;5.97;;;2.85;;
62401;SDS011;48440;51.224;22.506;2024-01-16T06:01:32;8.00;;;3.17;;
62401;SDS011;48440;51.224;22.506;2024-01-16T06:04:00;6.75;;;2.88;;
62401;SDS011;48440;51.224;22.506;2024-01-16T06:06:39;5.68;;;2.72;;
62401;SDS011;48440;51.224;22.506;2024-01-16T06:09:52;4.22;;;2.35;;
62401;SDS011;48440;51.224;22.506;2024-01-16T06:12:45;5.82;;;3.33;;
62401;SDS011;48440;51.224;22.506;2024-01-16T06:16:03;7.32;;;3.72;;
62401;SDS011;48440;51.224;22.506;2024-01-16T06:18:39;5.40;;;3.33;;
62401;SDS011;48440;51.224;22.506;2024-01-16T06:21:44;7.72;;;3.88;;
62401;SDS011;48440;51.224;22.506;2024-01-16T06:24:16;11.68;;;4.47;;
62401;SDS011;48440;51.224;22.506;2024-01-16T06:27:04;8.73;;;4.55;;
62401;SDS011;48440;51.224;22.506;2024-01-16T06:29:52;10.07;;;4.22;;
62401;SDS011;48440;51.224;22.506;2024-01-16T06:32:21;9.85;;;4.30;;
62401;SDS011;48440;51.224;22.506;2024-01-16T06:34:47;13.50;;;5.53;;
62401;SDS011;48440;51.224;22.506;2024-01-16T06:37:12;12.57;;;4.93;;
62401;SDS011;48440;51.224;22.506;2024-01-16T06:39:39;11.13;;;4.53;;
62401;SDS011;48440;51.224;22.506;2024-01-16T06:42:05;13.15;;;5.40;;
62401;SDS011;48440;51.224;22.506;2024-01-16T06:44:31;11.25;;;4.53;;
62401;SDS011;48440;51.224;22.506;2024-01-16T06:46:56;6.55;;;3.83;;
62401;SDS011;48440;51.224;22.506;2024-01-16T06:49:22;9.23;;;4.22;;
62401;SDS011;48440;51.224;22.506;2024-01-16T06:51:47;12.55;;;4.13;;
62401;SDS011;48440;51.224;22.506;2024-01-16T06:54:13;10.73;;;4.38;;
62401;SDS011;48440;51.224;22.506;2024-01-16T06:56:38;12.85;;;5.40;;
62401;SDS011;48440;51.224;22.506;2024-01-16T06:59:04;9.48;;;3.63;;
62401;SDS011;48440;51.224;22.506;2024-01-16T07:01:29;7.97;;;3.10;;
62401;SDS011;48440;51.224;22.506;2024-01-16T07:03:55;7.15;;;3.55;;
62401;SDS011;48440;51.224;22.506;2024-01-16T07:06:21;9.35;;;3.92;;
62401;SDS011;48440;51.224;22.506;2024-01-16T07:08:46;7.55;;;3.80;;
62401;SDS011;48440;51.224;22.506;2024-01-16T07:11:12;7.68;;;3.08;;
62401;SDS011;48440;51.224;22.506;2024-01-16T07:13:39;8.68;;;3.10;;
62401;SDS011;48440;51.224;22.506;2024-01-16T07:16:05;9.05;;;3.35;;
62401;SDS011;48440;51.224;22.506;2024-01-16T07:18:34;7.32;;;3.30;;
62401;SDS011;48440;51.224;22.506;2024-01-16T07:20:59;6.95;;;3.25;;
62401;SDS011;48440;51.224;22.506;2024-01-16T07:23:25;8.10;;;3.80;;
62401;SDS011;48440;51.224;22.506;2024-01-16T07:25:50;7.47;;;3.58;;
62401;SDS011;48440;51.224;22.506;2024-01-16T07:28:16;8.68;;;3.97;;
62401;SDS011;48440;51.224;22.506;2024-01-16T07:30:41;9.02;;;3.13;;
62401;SDS011;48440;51.224;22.506;2024-01-16T07:33:07;7.72;;;3.47;;
62401;SDS011;48440;51.224;22.506;2024-01-16T07:35:32;7.80;;;3.67;;
62401;SDS011;48440;51.224;22.506;2024-01-16T07:37:58;7.55;;;3.42;;
62401;SDS011;48440;51.224;22.506;2024-01-16T07:40:23;5.88;;;3.03;;
62401;SDS011;48440;51.224;22.506;2024-01-16T07:42:49;8.02;;;3.22;;
62401;SDS011;48440;51.224;22.506;2024-01-16T07:45:14;5.82;;;3.17;;
62401;SDS011;48440;51.224;22.506;2024-01-16T07:47:46;6.70;;;2.80;;
62401;SDS011;48440;51.224;22.506;2024-01-16T09:57:25;6.18;;;2.30;;
62401;SDS011;48440;51.224;22.506;2024-01-16T10:38:39;5.18;;;2.75;;
62401;SDS011;48440;51.224;22.506;2024-01-16T10:41:27;5.47;;;2.65;;
62401;SDS011;48440;51.224;22.506;2024-01-16T10:44:45;5.25;;;2.75;;
62401;SDS011;48440;51.224;22.506;2024-01-16T10:47:18;5.32;;;3.00;;
62401;SDS011;48440;51.224;22.506;2024-01-16T10:56:22;6.07;;;3.17;;
62401;SDS011;48440;51.224;22.506;2024-01-16T10:59:23;7.30;;;3.45;;
62401;SDS011;48440;51.224;22.506;2024-01-16T11:02:26;9.80;;;3.70;;
62401;SDS011;48440;51.224;22.506;2024-01-16T11:05:48;5.95;;;3.63;;
62401;SDS011;48440;51.224;22.506;2024-01-16T11:09:03;7.45;;;3.50;;
62401;SDS011;48440;51.224;22.506;2024-01-16T11:11:28;6.32;;;3.75;;
62401;SDS011;48440;51.224;22.506;2024-01-16T11:16:38;5.22;;;2.75;;
62401;SDS011;48440;51.224;22.506;2024-01-16T11:21:57;5.30;;;2.80;;
62401;SDS011;48440;51.224;22.506;2024-01-16T11:24:42;5.13;;;2.58;;
62401;SDS011;48440;51.224;22.506;2024-01-16T11:30:35;4.35;;;2.60;;
62401;SDS011;48440;51.224;22.506;2024-01-16T11:36:52;5.32;;;2.92;;
62401;SDS011;48440;51.224;22.506;2024-01-16T11:39:41;4.75;;;2.50;;
62401;SDS011;48440;51.224;22.506;2024-01-16T11:42:55;8.00;;;3.05;;
62401;SDS011;48440;51.224;22.506;2024-01-16T11:51:22;7.78;;;2.90;;
62401;SDS011;48440;51.224;22.506;2024-01-16T12:04:03;6.32;;;4.07;;
62401;SDS011;48440;51.224;22.506;2024-01-16T12:09:26;7.85;;;3.65;;
62401;SDS011;48440;51.224;22.506;2024-01-16T12:12:12;7.10;;;3.78;;
62401;SDS011;48440;51.224;22.506;2024-01-16T12:15:16;8.07;;;3.55;;
62401;SDS011;48440;51.224;22.506;2024-01-16T12:21:34;6.72;;;3.55;;
62401;SDS011;48440;51.224;22.506;2024-01-16T12:27:03;7.07;;;3.92;;
62401;SDS011;48440;51.224;22.506;2024-01-16T12:32:32;7.53;;;4.00;;
62401;SDS011;48440;51.224;22.506;2024-01-16T12:38:03;8.02;;;4.25;;
62401;SDS011;48440;51.224;22.506;2024-01-16T12:41:01;7.97;;;4.07;;
62401;SDS011;48440;51.224;22.506;2024-01-16T12:47:16;5.78;;;3.92;;
62401;SDS011;48440;51.224;22.506;2024-01-16T12:49:44;8.93;;;4.20;;
62401;SDS011;48440;51.224;22.506;2024-01-16T12:58:43;7.72;;;3.83;;
62401;SDS011;48440;51.224;22.506;2024-01-16T13:01:29;8.30;;;4.53;;
62401;SDS011;48440;51.224;22.506;2024-01-16T13:04:07;7.55;;;4.20;;
62401;SDS011;48440;51.224;22.506;2024-01-16T13:06:32;7.80;;;4.70;;
62401;SDS011;48440;51.224;22.506;2024-01-16T13:09:21;9.98;;;4.18;;
62401;SDS011;48440;51.224;22.506;2024-01-16T13:12:37;7.22;;;3.83;;
62401;SDS011;48440;51.224;22.506;2024-01-16T13:24:17;8.70;;;4.35;;
62401;SDS011;48440;51.224;22.506;2024-01-16T13:30:22;7.43;;;4.00;;
62401;SDS011;48440;51.224;22.506;2024-01-16T13:32:51;7.65;;;4.50;;
62401;SDS011;48440;51.224;22.506;2024-01-16T13:35:19;8.30;;;4.32;;
62401;SDS011;48440;51.224;22.506;2024-01-16T13:37:44;10.02;;;4.30;;
62401;SDS011;48440;51.224;22.506;2024-01-16T13:47:06;6.55;;;3.67;;
62401;SDS011;48440;51.224;22.506;2024-01-16T13:56:34;9.98;;;5.20;;
62401;SDS011;48440;51.224;22.506;2024-01-16T14:02:41;20.33;;;6.93;;
62401;SDS011;48440;51.224;22.506;2024-01-16T14:05:09;14.18;;;6.32;;
62401;SDS011;48440;51.224;22.506;2024-01-16T14:07:36;13.55;;;5.80;;
62401;SDS011;48440;51.224;22.506;2024-01-16T14:10:04;12.48;;;5.93;;
62401;SDS011;48440;51.224;22.506;2024-01-16T14:12:34;13.02;;;5.40;;
62401;SDS011;48440;51.224;22.506;2024-01-16T14:15:01;12.52;;;5.47;;
62401;SDS011;48440;51.224;22.506;2024-01-16T14:17:30;17.70;;;8.10;;
62401;SDS011;48440;51.224;22.506;2024-01-16T14:20:03;11.38;;;5.15;;
62401;SDS011;48440;51.224;22.506;2024-01-16T14:22:36;13.27;;;6.85;;
62401;SDS011;48440;51.224;22.506;2024-01-16T14:25:11;10.98;;;5.53;;
62401;SDS011;48440;51.224;22.506;2024-01-16T14:27:41;11.68;;;5.82;;
62401;SDS011;48440;51.224;22.506;2024-01-16T14:30:15;13.77;;;6.38;;
62401;SDS011;48440;51.224;22.506;2024-01-16T14:32:44;15.43;;;6.45;;
62401;SDS011;48440;51.224;22.506;2024-01-16T14:35:10;14.55;;;6.63;;
62401;SDS011;48440;51.224;22.506;2024-01-16T14:37:38;15.07;;;7.10;;
62401;SDS011;48440;51.224;22.506;2024-01-16T14:40:08;14.93;;;6.60;;
62401;SDS011;48440;51.224;22.506;2024-01-16T14:42:50;15.90;;;7.13;;
62401;SDS011;48440;51.224;22.506;2024-01-16T14:48:00;17.58;;;7.05;;
62401;SDS011;48440;51.224;22.506;2024-01-16T14:50:28;18.50;;;7.22;;
62401;SDS011;48440;51.224;22.506;2024-01-16T14:52:57;19.65;;;7.82;;
62401;SDS011;48440;51.224;22.506;2024-01-16T14:55:23;14.10;;;6.22;;
62401;SDS011;48440;51.224;22.506;2024-01-16T14:57:51;20.60;;;7.18;;
62401;SDS011;48440;51.224;22.506;2024-01-16T15:00:25;16.95;;;7.18;;
62401;SDS011;48440;51.224;22.506;2024-01-16T15:02:52;21.05;;;7.95;;
62401;SDS011;48440;51.224;22.506;2024-01-16T15:05:19;21.40;;;8.15;;
62401;SDS011;48440;51.224;22.506;2024-01-16T15:07:45;14.60;;;6.22;;
62401;SDS011;48440;51.224;22.506;2024-01-16T15:10:11;12.70;;;5.60;;
62401;SDS011;48440;51.224;22.506;2024-01-16T15:12:40;13.60;;;6.03;;
62401;SDS011;48440;51.224;22.506;2024-01-16T15:15:07;14.75;;;5.72;;
62401;SDS011;48440;51.224;22.506;2024-01-16T15:17:35;13.65;;;5.53;;
62401;SDS011;48440;51.224;22.506;2024-01-16T15:20:01;16.67;;;5.65;;
62401;SDS011;48440;51.224;22.506;2024-01-16T15:22:26;17.75;;;6.05;;
62401;SDS011;48440;51.224;22.506;2024-01-16T15:24:52;14.90;;;5.72;;
62401;SDS011;48440;51.224;22.506;2024-01-16T15:27:17;15.82;;;6.70;;
62401;SDS011;48440;51.224;22.506;2024-01-16T15:29:45;22.10;;;7.22;;
62401;SDS011;48440;51.224;22.506;2024-01-16T15:32:10;20.88;;;7.72;;
62401;SDS011;48440;51.224;22.506;2024-01-16T15:34:36;20.63;;;7.55;;
62401;SDS011;48440;51.224;22.506;2024-01-16T15:37:03;19.52;;;7.03;;
62401;SDS011;48440;51.224;22.506;2024-01-16T15:39:29;18.88;;;6.78;;
62401;SDS011;48440;51.224;22.506;2024-01-16T15:41:54;16.17;;;5.97;;
62401;SDS011;48440;51.224;22.506;2024-01-16T15:44:20;18.85;;;6.40;;
62401;SDS011;48440;51.224;22.506;2024-01-16T15:49:26;16.42;;;6.43;;
62401;SDS011;48440;51.224;22.506;2024-01-16T15:51:54;20.50;;;6.40;;
62401;SDS011;48440;51.224;22.506;2024-01-16T15:54:20;19.55;;;6.97;;
62401;SDS011;48440;51.224;22.506;2024-01-16T15:56:46;19.00;;;7.32;;
62401;SDS011;48440;51.224;22.506;2024-01-16T15:59:12;26.80;;;8.35;;
62401;SDS011;48440;51.224;22.506;2024-01-16T16:01:40;20.58;;;7.43;;
62401;SDS011;48440;51.224;22.506;2024-01-16T16:04:06;21.08;;;7.35;;
62401;SDS011;48440;51.224;22.506;2024-01-16T16:06:36;22.20;;;7.68;;
62401;SDS011;48440;51.224;22.506;2024-01-16T16:09:03;24.30;;;7.50;;
62401;SDS011;48440;51.224;22.506;2024-01-16T16:11:38;24.77;;;8.25;;
62401;SDS011;48440;51.224;22.506;2024-01-16T16:14:09;23.60;;;8.15;;
62401;SDS011;48440;51.224;22.506;2024-01-16T16:16:35;26.92;;;8.52;;
62401;SDS011;48440;51.224;22.506;2024-01-16T16:19:01;30.65;;;9.68;;
62401;SDS011;48440;51.224;22.506;2024-01-16T16:21:27;20.42;;;7.05;;
62401;SDS011;48440;51.224;22.506;2024-01-16T16:23:53;23.35;;;8.23;;
62401;SDS011;48440;51.224;22.506;2024-01-16T16:26:40;21.65;;;7.57;;
62401;SDS011;48440;51.224;22.506;2024-01-16T16:29:08;24.17;;;7.78;;
62401;SDS011;48440;51.224;22.506;2024-01-16T16:31:35;27.77;;;9.38;;
62401;SDS011;48440;51.224;22.506;2024-01-16T16:34:03;24.85;;;7.82;;
62401;SDS011;48440;51.224;22.506;2024-01-16T16:36:29;31.52;;;8.52;;
62401;SDS011;48440;51.224;22.506;2024-01-16T16:38:55;24.17;;;8.88;;
62401;SDS011;48440;51.224;22.506;2024-01-16T16:41:22;32.45;;;9.50;;
62401;SDS011;48440;51.224;22.506;2024-01-16T16:43:48;38.38;;;11.95;;
62401;SDS011;48440;51.224;22.506;2024-01-16T16:46:14;31.83;;;10.35;;
62401;SDS011;48440;51.224;22.506;2024-01-16T16:48:41;31.33;;;11.45;;
62401;SDS011;48440;51.224;22.506;2024-01-16T16:51:16;29.50;;;11.13;;
62401;SDS011;48440;51.224;22.506;2024-01-16T16:53:43;27.77;;;10.65;;
62401;SDS011;48440;51.224;22.506;2024-01-16T16:56:13;26.70;;;10.18;;
62401;SDS011;48440;51.224;22.506;2024-01-16T16:58:46;31.42;;;9.98;;
62401;SDS011;48440;51.224;22.506;2024-01-16T17:01:14;24.35;;;9.93;;
62401;SDS011;48440;51.224;22.506;2024-01-16T17:03:44;30.33;;;10.80;;
62401;SDS011;48440;51.224;22.506;2024-01-16T17:06:11;31.52;;;10.23;;
62401;SDS011;48440;51.224;22.506;2024-01-16T17:08:38;29.92;;;9.88;;
62401;SDS011;48440;51.224;22.506;2024-01-16T17:11:04;30.23;;;11.02;;
62401;SDS011;48440;51.224;22.506;2024-01-16T17:13:32;32.13;;;10.40;;
62401;SDS011;48440;51.224;22.506;2024-01-16T17:15:58;25.40;;;7.95;;
62401;SDS011;48440;51.224;22.506;2024-01-16T17:18:27;23.88;;;7.57;;
62401;SDS011;48440;51.224;22.506;2024-01-16T17:20:54;27.75;;;8.05;;
62401;SDS011;48440;51.224;22.506;2024-01-16T17:23:20;22.95;;;7.35;;
62401;SDS011;48440;51.224;22.506;2024-01-16T17:25:46;25.20;;;7.82;;
62401;SDS011;48440;51.224;22.506;2024-01-16T17:28:11;22.88;;;7.70;;
62401;SDS011;48440;51.224;22.506;2024-01-16T17:30:37;27.50;;;9.00;;
62401;SDS011;48440;51.224;22.506;2024-01-16T17:33:03;22.02;;;6.90;;
62401;SDS011;48440;51.224;22.506;2024-01-16T17:35:29;19.10;;;7.47;;
62401;SDS011;48440;51.224;22.506;2024-01-16T17:37:54;24.80;;;9.32;;
62401;SDS011;48440;51.224;22.506;2024-01-16T17:40:20;20.67;;;9.45;;
62401;SDS011;48440;51.224;22.506;2024-01-16T17:42:45;21.02;;;8.73;;
62401;SDS011;48440;51.224;22.506;2024-01-16T17:45:12;19.85;;;8.38;;
62401;SDS011;48440;51.224;22.506;2024-01-16T17:47:38;18.73;;;8.07;;
62401;SDS011;48440;51.224;22.506;2024-01-16T17:50:04;24.20;;;9.00;;
62401;SDS011;48440;51.224;22.506;2024-01-16T17:52:33;27.40;;;9.13;;
62401;SDS011;48440;51.224;22.506;2024-01-16T17:55:02;24.58;;;8.18;;
62401;SDS011;48440;51.224;22.506;2024-01-16T17:57:30;24.23;;;8.82;;
62401;SDS011;48440;51.224;22.506;2024-01-16T17:59:56;25.50;;;8.95;;
62401;SDS011;48440;51.224;22.506;2024-01-16T18:02:21;43.25;;;14.20;;
62401;SDS011;48440;51.224;22.506;2024-01-16T18:04:47;26.13;;;10.00;;
62401;SDS011;48440;51.224;22.506;2024-01-16T18:07:12;26.02;;;9.98;;
62401;SDS011;48440;51.224;22.506;2024-01-16T18:09:40;30.60;;;11.50;;
62401;SDS011;48440;51.224;22.506;2024-01-16T18:12:06;36.25;;;11.00;;
62401;SDS011;48440;51.224;22.506;2024-01-16T18:14:32;41.45;;;14.02;;
62401;SDS011;48440;51.224;22.506;2024-01-16T18:16:57;44.75;;;13.52;;
62401;SDS011;48440;51.224;22.506;2024-01-16T18:19:23;35.47;;;11.52;;
62401;SDS011;48440;51.224;22.506;2024-01-16T18:21:52;37.08;;;12.15;;
62401;SDS011;48440;51.224;22.506;2024-01-16T18:24:18;35.90;;;11.65;;
62401;SDS011;48440;51.224;22.506;2024-01-16T18:26:43;32.47;;;11.57;;
62401;SDS011;48440;51.224;22.506;2024-01-16T18:29:11;42.08;;;12.48;;
62401;SDS011;48440;51.224;22.506;2024-01-16T18:31:37;40.22;;;13.60;;
62401;SDS011;48440;51.224;22.506;2024-01-16T18:34:04;38.15;;;13.50;;
62401;SDS011;48440;51.224;22.506;2024-01-16T18:36:31;40.22;;;10.73;;
62401;SDS011;48440;51.224;22.506;2024-01-16T18:38:57;35.20;;;11.35;;
62401;SDS011;48440;51.224;22.506;2024-01-16T18:41:23;27.15;;;9.75;;
62401;SDS011;48440;51.224;22.506;2024-01-16T18:43:48;32.38;;;11.90;;
62401;SDS011;48440;51.224;22.506;2024-01-16T18:46:16;26.17;;;9.27;;
62401;SDS011;48440;51.224;22.506;2024-01-16T18:48:43;28.73;;;10.75;;
62401;SDS011;48440;51.224;22.506;2024-01-16T18:51:10;30.35;;;10.68;;
62401;SDS011;48440;51.224;22.506;2024-01-16T18:53:37;44.05;;;14.65;;
62401;SDS011;48440;51.224;22.506;2024-01-16T18:56:03;37.03;;;13.75;;
62401;SDS011;48440;51.224;22.506;2024-01-16T18:58:30;44.22;;;14.07;;
62401;SDS011;48440;51.224;22.506;2024-01-16T19:00:56;38.45;;;12.55;;
62401;SDS011;48440;51.224;22.506;2024-01-16T19:03:24;40.42;;;15.25;;
62401;SDS011;48440;51.224;22.506;2024-01-16T19:05:50;44.95;;;16.20;;
62401;SDS011;48440;51.224;22.506;2024-01-16T19:08:18;34.85;;;13.65;;
62401;SDS011;48440;51.224;22.506;2024-01-16T19:10:54;34.95;;;13.18;;
62401;SDS011;48440;51.224;22.506;2024-01-16T19:13:20;35.70;;;13.43;;
62401;SDS011;48440;51.224;22.506;2024-01-16T19:15:48;43.35;;;13.80;;
62401;SDS011;48440;51.224;22.506;2024-01-16T19:18:15;40.28;;;14.00;;
62401;SDS011;48440;51.224;22.506;2024-01-16T19:20:40;42.55;;;14.57;;
62401;SDS011;48440;51.224;22.506;2024-01-16T19:23:06;34.90;;;12.68;;
62401;SDS011;48440;51.224;22.506;2024-01-16T19:25:31;32.40;;;11.43;;
62401;SDS011;48440;51.224;22.506;2024-01-16T19:27:57;31.98;;;12.77;;
62401;SDS011;48440;51.224;22.506;2024-01-16T19:30:23;36.72;;;12.65;;
62401;SDS011;48440;51.224;22.506;2024-01-16T19:32:51;30.70;;;11.48;;
62401;SDS011;48440;51.224;22.506;2024-01-16T19:35:16;30.27;;;11.07;;
62401;SDS011;48440;51.224;22.506;2024-01-16T19:37:42;29.55;;;11.10;;
62401;SDS011;48440;51.224;22.506;2024-01-16T19:40:08;30.70;;;10.48;;